sensor_id;sensor_type;location;lat;lon;timestamp;temperature;humidity
40952;DHT22;26682;51.660;19.338;2022-11-04T00:00:06;8.30;99.90
40952;DHT22;26682;51.660;19.338;2022-11-04T00:02:13;8.40;99.90
40952;DHT22;26682;51.660;19.338;2022-11-04T00:03:59;8.40;99.90
40952;DHT22;26682;51.660;19.338;2022-11-04T00:05:45;8.40;99.90
40952;DHT22;26682;51.660;19.338;2022-11-04T00:07:31;8.40;99.90
40952;DHT22;26682;51.660;19.338;2022-11-04T00:09:35;8.40;99.90
40952;DHT22;26682;51.660;19.338;2022-11-04T00:11:21;8.50;99.90
40952;DHT22;26682;51.660;19.338;2022-11-04T00:13:29;8.50;99.90
40952;DHT22;26682;51.660;19.338;2022-11-04T00:15:15;8.40;99.90
40952;DHT22;26682;51.660;19.338;2022-11-04T00:17:20;8.50;99.90
40952;DHT22;26682;51.660;19.338;2022-11-04T00:19:09;8.40;99.90
40952;DHT22;26682;51.660;19.338;2022-11-04T00:20:55;8.50;99.90
40952;DHT22;26682;51.660;19.338;2022-11-04T00:23:00;8.50;99.90
40952;DHT22;26682;51.660;19.338;2022-11-04T00:25:05;8.50;99.90
40952;DHT22;26682;51.660;19.338;2022-11-04T00:27:11;8.50;99.90
40952;DHT22;26682;51.660;19.338;2022-11-04T00:29:16;8.50;99.90
40952;DHT22;26682;51.660;19.338;2022-11-04T00:31:04;8.50;99.90
40952;DHT22;26682;51.660;19.338;2022-11-04T00:33:09;8.50;99.90
40952;DHT22;26682;51.660;19.338;2022-11-04T00:35:10;8.50;99.90
40952;DHT22;26682;51.660;19.338;2022-11-04T00:36:58;8.50;99.90
40952;DHT22;26682;51.660;19.338;2022-11-04T00:38:44;8.50;99.90
40952;DHT22;26682;51.660;19.338;2022-11-04T00:40:30;8.50;99.90
40952;DHT22;26682;51.660;19.338;2022-11-04T00:42:16;8.40;99.90
40952;DHT22;26682;51.660;19.338;2022-11-04T00:44:03;8.40;99.90
40952;DHT22;26682;51.660;19.338;2022-11-04T00:45:49;8.40;99.90
40952;DHT22;26682;51.660;19.338;2022-11-04T00:47:35;8.30;99.90
40952;DHT22;26682;51.660;19.338;2022-11-04T00:49:21;8.40;99.90
40952;DHT22;26682;51.660;19.338;2022-11-04T00:51:07;8.40;99.90
40952;DHT22;26682;51.660;19.338;2022-11-04T00:53:00;8.40;99.90
40952;DHT22;26682;51.660;19.338;2022-11-04T00:54:47;8.40;99.90
40952;DHT22;26682;51.660;19.338;2022-11-04T00:56:36;8.40;99.90
40952;DHT22;26682;51.660;19.338;2022-11-04T00:58:22;8.40;99.90
40952;DHT22;26682;51.660;19.338;2022-11-04T01:00:08;8.30;99.90
40952;DHT22;26682;51.660;19.338;2022-11-04T01:01:55;8.30;99.90
40952;DHT22;26682;51.660;19.338;2022-11-04T01:03:43;8.30;99.90
40952;DHT22;26682;51.660;19.338;2022-11-04T01:05:29;8.30;99.90
40952;DHT22;26682;51.660;19.338;2022-11-04T01:07:15;8.30;99.90
40952;DHT22;26682;51.660;19.338;2022-11-04T01:09:04;8.30;99.90
40952;DHT22;26682;51.660;19.338;2022-11-04T01:10:50;8.30;99.90
40952;DHT22;26682;51.660;19.338;2022-11-04T01:12:36;8.30;99.90
40952;DHT22;26682;51.660;19.338;2022-11-04T01:14:22;8.30;99.90
40952;DHT22;26682;51.660;19.338;2022-11-04T01:16:10;8.30;99.90
40952;DHT22;26682;51.660;19.338;2022-11-04T01:17:55;8.30;99.90
40952;DHT22;26682;51.660;19.338;2022-11-04T01:19:42;8.30;99.90
40952;DHT22;26682;51.660;19.338;2022-11-04T01:21:28;8.20;99.90
40952;DHT22;26682;51.660;19.338;2022-11-04T01:23:14;8.30;99.90
40952;DHT22;26682;51.660;19.338;2022-11-04T01:25:00;8.20;99.90
40952;DHT22;26682;51.660;19.338;2022-11-04T01:26:46;8.20;99.90
40952;DHT22;26682;51.660;19.338;2022-11-04T01:28:31;8.30;99.90
40952;DHT22;26682;51.660;19.338;2022-11-04T01:30:18;8.30;99.90
40952;DHT22;26682;51.660;19.338;2022-11-04T01:32:04;8.30;99.90
40952;DHT22;26682;51.660;19.338;2022-11-04T01:33:51;8.30;99.90
40952;DHT22;26682;51.660;19.338;2022-11-04T01:35:38;8.30;99.90
40952;DHT22;26682;51.660;19.338;2022-11-04T01:37:23;8.30;99.90
40952;DHT22;26682;51.660;19.338;2022-11-04T01:39:10;8.30;99.90
40952;DHT22;26682;51.660;19.338;2022-11-04T01:40:57;8.30;99.90
40952;DHT22;26682;51.660;19.338;2022-11-04T01:42:43;8.30;99.90
40952;DHT22;26682;51.660;19.338;2022-11-04T01:48:29;8.30;99.90
40952;DHT22;26682;51.660;19.338;2022-11-04T01:50:20;8.40;99.90
40952;DHT22;26682;51.660;19.338;2022-11-04T01:52:17;8.30;99.90
40952;DHT22;26682;51.660;19.338;2022-11-04T01:54:05;8.40;99.90
40952;DHT22;26682;51.660;19.338;2022-11-04T01:55:56;8.40;99.90
40952;DHT22;26682;51.660;19.338;2022-11-04T01:57:47;8.40;99.90
40952;DHT22;26682;51.660;19.338;2022-11-04T01:59:38;8.40;99.90
40952;DHT22;26682;51.660;19.338;2022-11-04T02:01:24;8.40;99.90
40952;DHT22;26682;51.660;19.338;2022-11-04T02:03:29;8.40;99.90
40952;DHT22;26682;51.660;19.338;2022-11-04T02:05:17;8.40;99.90
40952;DHT22;26682;51.660;19.338;2022-11-04T02:07:05;8.50;99.90
40952;DHT22;26682;51.660;19.338;2022-11-04T02:08:52;8.50;99.90
40952;DHT22;26682;51.660;19.338;2022-11-04T02:10:40;8.50;99.90
40952;DHT22;26682;51.660;19.338;2022-11-04T02:12:28;8.50;99.90
40952;DHT22;26682;51.660;19.338;2022-11-04T02:14:33;8.50;99.90
40952;DHT22;26682;51.660;19.338;2022-11-04T02:16:36;8.60;99.90
40952;DHT22;26682;51.660;19.338;2022-11-04T02:27:28;8.60;99.90
40952;DHT22;26682;51.660;19.338;2022-11-04T02:33:59;8.70;99.90
40952;DHT22;26682;51.660;19.338;2022-11-04T02:36:02;8.70;99.90
40952;DHT22;26682;51.660;19.338;2022-11-04T02:42:00;8.70;99.90
40952;DHT22;26682;51.660;19.338;2022-11-04T02:44:01;8.70;99.90
40952;DHT22;26682;51.660;19.338;2022-11-04T02:46:05;8.70;99.90
40952;DHT22;26682;51.660;19.338;2022-11-04T02:48:27;8.70;99.90
40952;DHT22;26682;51.660;19.338;2022-11-04T02:50:24;8.70;99.90
40952;DHT22;26682;51.660;19.338;2022-11-04T02:52:20;8.70;99.90
40952;DHT22;26682;51.660;19.338;2022-11-04T02:54:19;8.70;99.90
40952;DHT22;26682;51.660;19.338;2022-11-04T02:56:07;8.70;99.90
40952;DHT22;26682;51.660;19.338;2022-11-04T02:57:58;8.70;99.90
40952;DHT22;26682;51.660;19.338;2022-11-04T03:00:05;8.70;99.90
40952;DHT22;26682;51.660;19.338;2022-11-04T03:01:52;8.70;99.90
40952;DHT22;26682;51.660;19.338;2022-11-04T03:03:44;8.70;99.90
40952;DHT22;26682;51.660;19.338;2022-11-04T03:05:33;8.70;99.90
40952;DHT22;26682;51.660;19.338;2022-11-04T03:07:25;8.60;99.90
40952;DHT22;26682;51.660;19.338;2022-11-04T03:09:13;8.60;99.90
40952;DHT22;26682;51.660;19.338;2022-11-04T03:11:04;8.60;99.90
40952;DHT22;26682;51.660;19.338;2022-11-04T03:13:04;8.60;99.90
40952;DHT22;26682;51.660;19.338;2022-11-04T03:14:54;8.60;99.90
40952;DHT22;26682;51.660;19.338;2022-11-04T03:16:56;8.60;99.90
40952;DHT22;26682;51.660;19.338;2022-11-04T03:18:53;8.60;99.90
40952;DHT22;26682;51.660;19.338;2022-11-04T03:20:44;8.60;99.90
40952;DHT22;26682;51.660;19.338;2022-11-04T03:22:35;8.60;99.90
40952;DHT22;26682;51.660;19.338;2022-11-04T03:24:21;8.60;99.90
40952;DHT22;26682;51.660;19.338;2022-11-04T03:26:24;8.60;99.90
40952;DHT22;26682;51.660;19.338;2022-11-04T03:28:43;8.60;99.90
40952;DHT22;26682;51.660;19.338;2022-11-04T03:30:38;8.60;99.90
40952;DHT22;26682;51.660;19.338;2022-11-04T03:34:31;8.50;99.90
40952;DHT22;26682;51.660;19.338;2022-11-04T03:36:18;8.50;99.90
40952;DHT22;26682;51.660;19.338;2022-11-04T03:38:04;8.50;99.90
40952;DHT22;26682;51.660;19.338;2022-11-04T03:39:50;8.50;99.90
40952;DHT22;26682;51.660;19.338;2022-11-04T03:42:03;8.50;99.90
40952;DHT22;26682;51.660;19.338;2022-11-04T03:44:04;8.40;99.90
40952;DHT22;26682;51.660;19.338;2022-11-04T03:45:50;8.40;99.90
40952;DHT22;26682;51.660;19.338;2022-11-04T03:47:36;8.50;99.90
40952;DHT22;26682;51.660;19.338;2022-11-04T03:49:23;8.40;99.90
40952;DHT22;26682;51.660;19.338;2022-11-04T03:51:10;8.40;99.90
40952;DHT22;26682;51.660;19.338;2022-11-04T03:52:57;8.40;99.90
40952;DHT22;26682;51.660;19.338;2022-11-04T03:54:45;8.40;99.90
40952;DHT22;26682;51.660;19.338;2022-11-04T03:56:41;8.40;99.90
40952;DHT22;26682;51.660;19.338;2022-11-04T04:00:52;8.40;99.90
40952;DHT22;26682;51.660;19.338;2022-11-04T04:03:24;8.40;99.90
40952;DHT22;26682;51.660;19.338;2022-11-04T04:05:05;8.40;99.90
40952;DHT22;26682;51.660;19.338;2022-11-04T04:07:19;8.40;99.90
40952;DHT22;26682;51.660;19.338;2022-11-04T04:09:17;8.50;99.90
40952;DHT22;26682;51.660;19.338;2022-11-04T04:12:58;8.50;99.90
40952;DHT22;26682;51.660;19.338;2022-11-04T04:14:49;8.50;99.90
40952;DHT22;26682;51.660;19.338;2022-11-04T04:16:40;8.50;99.90
40952;DHT22;26682;51.660;19.338;2022-11-04T04:18:41;8.50;99.90
40952;DHT22;26682;51.660;19.338;2022-11-04T04:20:31;8.50;99.90
40952;DHT22;26682;51.660;19.338;2022-11-04T04:22:26;8.50;99.90
40952;DHT22;26682;51.660;19.338;2022-11-04T04:24:17;8.50;99.90
40952;DHT22;26682;51.660;19.338;2022-11-04T04:26:24;8.50;99.90
40952;DHT22;26682;51.660;19.338;2022-11-04T04:28:28;8.50;99.90
40952;DHT22;26682;51.660;19.338;2022-11-04T04:30:15;8.50;99.90
40952;DHT22;26682;51.660;19.338;2022-11-04T04:32:03;8.60;99.90
40952;DHT22;26682;51.660;19.338;2022-11-04T04:33:49;8.60;99.90
40952;DHT22;26682;51.660;19.338;2022-11-04T04:35:51;8.60;99.90
40952;DHT22;26682;51.660;19.338;2022-11-04T04:37:39;8.60;99.90
40952;DHT22;26682;51.660;19.338;2022-11-04T04:39:42;8.60;99.90
40952;DHT22;26682;51.660;19.338;2022-11-04T04:41:48;8.60;99.90
40952;DHT22;26682;51.660;19.338;2022-11-04T04:43:53;8.60;99.90
40952;DHT22;26682;51.660;19.338;2022-11-04T04:45:58;8.60;99.90
40952;DHT22;26682;51.660;19.338;2022-11-04T04:47:45;8.60;99.90
40952;DHT22;26682;51.660;19.338;2022-11-04T04:49:31;8.70;99.90
40952;DHT22;26682;51.660;19.338;2022-11-04T04:51:20;8.70;99.90
40952;DHT22;26682;51.660;19.338;2022-11-04T04:53:06;8.70;99.90
40952;DHT22;26682;51.660;19.338;2022-11-04T04:54:52;8.70;99.90
40952;DHT22;26682;51.660;19.338;2022-11-04T04:56:38;8.60;99.90
40952;DHT22;26682;51.660;19.338;2022-11-04T04:58:24;8.60;99.90
40952;DHT22;26682;51.660;19.338;2022-11-04T05:00:16;8.60;99.90
40952;DHT22;26682;51.660;19.338;2022-11-04T05:02:02;8.60;99.90
40952;DHT22;26682;51.660;19.338;2022-11-04T05:03:48;8.60;99.90
40952;DHT22;26682;51.660;19.338;2022-11-04T05:05:34;8.60;99.90
40952;DHT22;26682;51.660;19.338;2022-11-04T05:07:20;8.60;99.90
40952;DHT22;26682;51.660;19.338;2022-11-04T05:09:06;8.60;99.90
40952;DHT22;26682;51.660;19.338;2022-11-04T05:10:52;8.60;99.90
40952;DHT22;26682;51.660;19.338;2022-11-04T05:12:39;8.60;99.90
40952;DHT22;26682;51.660;19.338;2022-11-04T05:14:44;8.60;99.90
40952;DHT22;26682;51.660;19.338;2022-11-04T05:16:30;8.60;99.90
40952;DHT22;26682;51.660;19.338;2022-11-04T05:18:16;8.60;99.90
40952;DHT22;26682;51.660;19.338;2022-11-04T05:20:02;8.60;99.90
40952;DHT22;26682;51.660;19.338;2022-11-04T05:21:48;8.60;99.90
40952;DHT22;26682;51.660;19.338;2022-11-04T05:23:34;8.60;99.90
40952;DHT22;26682;51.660;19.338;2022-11-04T05:25:20;8.60;99.90
40952;DHT22;26682;51.660;19.338;2022-11-04T05:27:06;8.60;99.90
40952;DHT22;26682;51.660;19.338;2022-11-04T05:28:52;8.60;99.90
40952;DHT22;26682;51.660;19.338;2022-11-04T05:30:38;8.60;99.90
40952;DHT22;26682;51.660;19.338;2022-11-04T05:32:24;8.70;99.90
40952;DHT22;26682;51.660;19.338;2022-11-04T05:34:13;8.70;99.90
40952;DHT22;26682;51.660;19.338;2022-11-04T05:36:18;8.70;99.90
40952;DHT22;26682;51.660;19.338;2022-11-04T05:38:04;8.70;99.90
40952;DHT22;26682;51.660;19.338;2022-11-04T05:39:49;8.70;99.90
40952;DHT22;26682;51.660;19.338;2022-11-04T05:41:35;8.70;99.90
40952;DHT22;26682;51.660;19.338;2022-11-04T05:43:21;8.70;99.90
40952;DHT22;26682;51.660;19.338;2022-11-04T05:45:08;8.70;99.90
40952;DHT22;26682;51.660;19.338;2022-11-04T05:46:54;8.70;99.90
40952;DHT22;26682;51.660;19.338;2022-11-04T05:48:40;8.70;99.90
40952;DHT22;26682;51.660;19.338;2022-11-04T05:50:26;8.70;99.90
40952;DHT22;26682;51.660;19.338;2022-11-04T05:52:13;8.70;99.90
40952;DHT22;26682;51.660;19.338;2022-11-04T05:53:59;8.80;99.90
40952;DHT22;26682;51.660;19.338;2022-11-04T05:55:45;8.70;99.90
40952;DHT22;26682;51.660;19.338;2022-11-04T05:57:31;8.80;99.90
40952;DHT22;26682;51.660;19.338;2022-11-04T05:59:17;8.80;99.90
40952;DHT22;26682;51.660;19.338;2022-11-04T06:03:08;8.80;99.90
40952;DHT22;26682;51.660;19.338;2022-11-04T06:04:54;8.80;99.90
40952;DHT22;26682;51.660;19.338;2022-11-04T06:06:40;8.80;99.90
40952;DHT22;26682;51.660;19.338;2022-11-04T06:08:26;8.80;99.90
40952;DHT22;26682;51.660;19.338;2022-11-04T06:10:12;8.80;99.90
40952;DHT22;26682;51.660;19.338;2022-11-04T06:11:58;8.80;99.90
40952;DHT22;26682;51.660;19.338;2022-11-04T06:13:44;8.80;99.90
40952;DHT22;26682;51.660;19.338;2022-11-04T06:15:30;8.80;99.90
40952;DHT22;26682;51.660;19.338;2022-11-04T06:17:17;8.80;99.90
40952;DHT22;26682;51.660;19.338;2022-11-04T06:19:04;8.80;99.90
40952;DHT22;26682;51.660;19.338;2022-11-04T06:20:50;8.80;99.90
40952;DHT22;26682;51.660;19.338;2022-11-04T06:22:50;8.80;99.90
40952;DHT22;26682;51.660;19.338;2022-11-04T06:24:36;8.80;99.90
40952;DHT22;26682;51.660;19.338;2022-11-04T06:26:23;8.80;99.90
40952;DHT22;26682;51.660;19.338;2022-11-04T06:28:10;8.90;99.90
40952;DHT22;26682;51.660;19.338;2022-11-04T06:29:56;8.90;99.90
40952;DHT22;26682;51.660;19.338;2022-11-04T06:31:42;8.90;99.90
40952;DHT22;26682;51.660;19.338;2022-11-04T06:33:28;8.90;99.90
40952;DHT22;26682;51.660;19.338;2022-11-04T06:35:15;9.00;99.90
40952;DHT22;26682;51.660;19.338;2022-11-04T06:37:01;9.00;99.90
40952;DHT22;26682;51.660;19.338;2022-11-04T06:38:47;9.00;99.90
40952;DHT22;26682;51.660;19.338;2022-11-04T06:40:33;9.00;99.90
40952;DHT22;26682;51.660;19.338;2022-11-04T06:42:19;9.00;99.90
40952;DHT22;26682;51.660;19.338;2022-11-04T06:44:05;9.00;99.90
40952;DHT22;26682;51.660;19.338;2022-11-04T06:45:55;9.00;99.90
40952;DHT22;26682;51.660;19.338;2022-11-04T06:47:41;9.00;99.90
40952;DHT22;26682;51.660;19.338;2022-11-04T06:49:27;9.00;99.90
40952;DHT22;26682;51.660;19.338;2022-11-04T06:51:13;9.00;99.90
40952;DHT22;26682;51.660;19.338;2022-11-04T06:52:59;9.00;99.90
40952;DHT22;26682;51.660;19.338;2022-11-04T06:54:45;9.00;99.90
40952;DHT22;26682;51.660;19.338;2022-11-04T06:56:32;9.00;99.90
40952;DHT22;26682;51.660;19.338;2022-11-04T06:58:21;9.00;99.90
40952;DHT22;26682;51.660;19.338;2022-11-04T07:00:08;9.00;99.90
40952;DHT22;26682;51.660;19.338;2022-11-04T07:01:54;9.00;99.90
40952;DHT22;26682;51.660;19.338;2022-11-04T07:03:40;9.00;99.90
40952;DHT22;26682;51.660;19.338;2022-11-04T07:05:26;9.00;99.90
40952;DHT22;26682;51.660;19.338;2022-11-04T07:07:12;9.10;99.90
40952;DHT22;26682;51.660;19.338;2022-11-04T07:09:00;9.00;99.90
40952;DHT22;26682;51.660;19.338;2022-11-04T07:10:46;9.10;99.90
40952;DHT22;26682;51.660;19.338;2022-11-04T07:12:32;9.10;99.90
40952;DHT22;26682;51.660;19.338;2022-11-04T07:14:18;9.10;99.90
40952;DHT22;26682;51.660;19.338;2022-11-04T07:16:05;9.10;99.90
40952;DHT22;26682;51.660;19.338;2022-11-04T07:17:51;9.20;99.90
40952;DHT22;26682;51.660;19.338;2022-11-04T07:19:37;9.20;99.90
40952;DHT22;26682;51.660;19.338;2022-11-04T07:21:23;9.20;99.90
40952;DHT22;26682;51.660;19.338;2022-11-04T07:23:09;9.20;99.90
40952;DHT22;26682;51.660;19.338;2022-11-04T07:24:55;9.20;99.90
40952;DHT22;26682;51.660;19.338;2022-11-04T07:26:41;9.20;99.90
40952;DHT22;26682;51.660;19.338;2022-11-04T07:28:27;9.20;99.90
40952;DHT22;26682;51.660;19.338;2022-11-04T07:30:13;9.20;99.90
40952;DHT22;26682;51.660;19.338;2022-11-04T07:31:59;9.30;99.90
40952;DHT22;26682;51.660;19.338;2022-11-04T07:33:46;9.50;99.90
40952;DHT22;26682;51.660;19.338;2022-11-04T07:35:36;9.50;99.90
40952;DHT22;26682;51.660;19.338;2022-11-04T07:37:21;9.50;99.90
40952;DHT22;26682;51.660;19.338;2022-11-04T07:39:08;9.40;99.90
40952;DHT22;26682;51.660;19.338;2022-11-04T07:40:54;9.40;99.90
40952;DHT22;26682;51.660;19.338;2022-11-04T07:42:40;9.40;99.90
40952;DHT22;26682;51.660;19.338;2022-11-04T07:44:27;9.40;99.90
40952;DHT22;26682;51.660;19.338;2022-11-04T07:46:13;9.40;99.90
40952;DHT22;26682;51.660;19.338;2022-11-04T07:47:59;9.40;99.90
40952;DHT22;26682;51.660;19.338;2022-11-04T07:49:45;9.40;99.90
40952;DHT22;26682;51.660;19.338;2022-11-04T07:51:31;9.40;99.90
40952;DHT22;26682;51.660;19.338;2022-11-04T07:53:17;9.50;99.90
40952;DHT22;26682;51.660;19.338;2022-11-04T07:55:04;9.50;99.90
40952;DHT22;26682;51.660;19.338;2022-11-04T07:56:50;9.50;99.90
40952;DHT22;26682;51.660;19.338;2022-11-04T07:58:36;9.50;99.90
40952;DHT22;26682;51.660;19.338;2022-11-04T08:00:22;9.50;99.90
40952;DHT22;26682;51.660;19.338;2022-11-04T08:02:11;9.50;99.90
40952;DHT22;26682;51.660;19.338;2022-11-04T08:03:58;9.50;99.90
40952;DHT22;26682;51.660;19.338;2022-11-04T08:05:44;9.50;99.90
40952;DHT22;26682;51.660;19.338;2022-11-04T08:07:30;9.50;99.90
40952;DHT22;26682;51.660;19.338;2022-11-04T08:09:16;9.60;99.90
40952;DHT22;26682;51.660;19.338;2022-11-04T08:11:05;9.70;99.90
40952;DHT22;26682;51.660;19.338;2022-11-04T08:12:52;9.70;99.90
40952;DHT22;26682;51.660;19.338;2022-11-04T08:14:38;9.70;99.90
40952;DHT22;26682;51.660;19.338;2022-11-04T08:16:24;9.70;99.90
40952;DHT22;26682;51.660;19.338;2022-11-04T08:18:10;9.70;99.90
40952;DHT22;26682;51.660;19.338;2022-11-04T08:19:56;9.70;99.90
40952;DHT22;26682;51.660;19.338;2022-11-04T08:21:42;9.70;99.90
40952;DHT22;26682;51.660;19.338;2022-11-04T08:23:28;9.70;99.90
40952;DHT22;26682;51.660;19.338;2022-11-04T08:25:14;9.70;99.90
40952;DHT22;26682;51.660;19.338;2022-11-04T08:27:00;9.70;99.90
40952;DHT22;26682;51.660;19.338;2022-11-04T08:28:46;9.70;99.90
40952;DHT22;26682;51.660;19.338;2022-11-04T08:30:34;9.70;99.90
40952;DHT22;26682;51.660;19.338;2022-11-04T08:32:20;9.70;99.90
40952;DHT22;26682;51.660;19.338;2022-11-04T08:34:06;9.70;99.90
40952;DHT22;26682;51.660;19.338;2022-11-04T08:35:54;9.70;99.90
40952;DHT22;26682;51.660;19.338;2022-11-04T08:37:40;9.70;99.90
40952;DHT22;26682;51.660;19.338;2022-11-04T08:39:29;9.70;99.90
40952;DHT22;26682;51.660;19.338;2022-11-04T08:41:18;9.70;99.90
40952;DHT22;26682;51.660;19.338;2022-11-04T08:43:05;9.70;99.90
40952;DHT22;26682;51.660;19.338;2022-11-04T08:44:51;9.70;99.90
40952;DHT22;26682;51.660;19.338;2022-11-04T08:46:37;9.70;99.90
40952;DHT22;26682;51.660;19.338;2022-11-04T08:48:24;9.70;99.90
40952;DHT22;26682;51.660;19.338;2022-11-04T08:50:10;9.70;99.90
40952;DHT22;26682;51.660;19.338;2022-11-04T08:51:56;9.60;99.90
40952;DHT22;26682;51.660;19.338;2022-11-04T08:53:45;9.60;99.90
40952;DHT22;26682;51.660;19.338;2022-11-04T08:55:31;9.60;99.90
40952;DHT22;26682;51.660;19.338;2022-11-04T08:57:18;9.60;99.90
40952;DHT22;26682;51.660;19.338;2022-11-04T08:59:05;9.50;99.90
40952;DHT22;26682;51.660;19.338;2022-11-04T09:00:51;9.50;99.90
40952;DHT22;26682;51.660;19.338;2022-11-04T09:02:37;9.50;99.90
40952;DHT22;26682;51.660;19.338;2022-11-04T09:04:25;9.50;99.90
40952;DHT22;26682;51.660;19.338;2022-11-04T09:06:15;9.50;99.90
40952;DHT22;26682;51.660;19.338;2022-11-04T09:08:01;9.50;99.90
40952;DHT22;26682;51.660;19.338;2022-11-04T09:09:49;9.50;99.90
40952;DHT22;26682;51.660;19.338;2022-11-04T09:11:38;9.50;99.90
40952;DHT22;26682;51.660;19.338;2022-11-04T09:13:25;9.50;99.90
40952;DHT22;26682;51.660;19.338;2022-11-04T09:15:12;9.50;99.90
40952;DHT22;26682;51.660;19.338;2022-11-04T09:16:57;9.50;99.90
40952;DHT22;26682;51.660;19.338;2022-11-04T09:18:43;9.60;99.90
40952;DHT22;26682;51.660;19.338;2022-11-04T09:20:30;9.60;99.90
40952;DHT22;26682;51.660;19.338;2022-11-04T09:22:16;9.70;99.90
40952;DHT22;26682;51.660;19.338;2022-11-04T09:24:03;9.70;99.90
40952;DHT22;26682;51.660;19.338;2022-11-04T09:25:49;9.80;99.90
40952;DHT22;26682;51.660;19.338;2022-11-04T09:27:37;9.90;99.90
40952;DHT22;26682;51.660;19.338;2022-11-04T09:29:23;9.90;99.90
40952;DHT22;26682;51.660;19.338;2022-11-04T09:31:16;9.90;99.90
40952;DHT22;26682;51.660;19.338;2022-11-04T09:33:02;10.00;99.90
40952;DHT22;26682;51.660;19.338;2022-11-04T09:34:48;9.90;99.90
40952;DHT22;26682;51.660;19.338;2022-11-04T09:36:34;9.90;99.90
40952;DHT22;26682;51.660;19.338;2022-11-04T09:38:20;9.90;99.90
40952;DHT22;26682;51.660;19.338;2022-11-04T09:40:13;10.00;99.90
40952;DHT22;26682;51.660;19.338;2022-11-04T09:46:10;10.10;99.90
40952;DHT22;26682;51.660;19.338;2022-11-04T09:48:02;10.10;99.90
40952;DHT22;26682;51.660;19.338;2022-11-04T09:49:52;10.10;99.90
40952;DHT22;26682;51.660;19.338;2022-11-04T09:51:42;10.20;99.90
40952;DHT22;26682;51.660;19.338;2022-11-04T09:53:39;10.20;99.90
40952;DHT22;26682;51.660;19.338;2022-11-04T09:57:19;10.30;99.90
40952;DHT22;26682;51.660;19.338;2022-11-04T09:59:08;10.30;99.90
40952;DHT22;26682;51.660;19.338;2022-11-04T10:01:00;10.30;99.90
40952;DHT22;26682;51.660;19.338;2022-11-04T10:02:55;10.40;99.90
40952;DHT22;26682;51.660;19.338;2022-11-04T10:05:09;10.40;99.90
40952;DHT22;26682;51.660;19.338;2022-11-04T10:07:16;10.40;99.90
40952;DHT22;26682;51.660;19.338;2022-11-04T10:09:17;10.40;99.90
40952;DHT22;26682;51.660;19.338;2022-11-04T10:11:32;10.50;99.90
40952;DHT22;26682;51.660;19.338;2022-11-04T10:13:28;10.60;99.90
40952;DHT22;26682;51.660;19.338;2022-11-04T10:20:02;10.70;99.90
40952;DHT22;26682;51.660;19.338;2022-11-04T10:26:43;10.80;99.90
40952;DHT22;26682;51.660;19.338;2022-11-04T10:28:34;10.90;99.90
40952;DHT22;26682;51.660;19.338;2022-11-04T10:30:24;10.90;99.90
40952;DHT22;26682;51.660;19.338;2022-11-04T10:32:18;10.90;99.90
40952;DHT22;26682;51.660;19.338;2022-11-04T10:34:11;10.90;99.90
40952;DHT22;26682;51.660;19.338;2022-11-04T10:36:03;10.90;99.90
40952;DHT22;26682;51.660;19.338;2022-11-04T10:37:52;10.90;99.90
40952;DHT22;26682;51.660;19.338;2022-11-04T10:40:32;10.80;99.90
40952;DHT22;26682;51.660;19.338;2022-11-04T10:42:21;10.90;99.90
40952;DHT22;26682;51.660;19.338;2022-11-04T10:44:25;10.90;99.90
40952;DHT22;26682;51.660;19.338;2022-11-04T10:48:16;10.90;99.90
40952;DHT22;26682;51.660;19.338;2022-11-04T10:52:00;10.90;99.90
40952;DHT22;26682;51.660;19.338;2022-11-04T10:53:54;10.90;99.90
40952;DHT22;26682;51.660;19.338;2022-11-04T10:56:15;10.90;99.90
40952;DHT22;26682;51.660;19.338;2022-11-04T10:57:59;10.90;99.90
40952;DHT22;26682;51.660;19.338;2022-11-04T10:59:57;10.80;99.90
40952;DHT22;26682;51.660;19.338;2022-11-04T11:01:55;10.80;99.90
40952;DHT22;26682;51.660;19.338;2022-11-04T11:03:41;10.80;99.90
40952;DHT22;26682;51.660;19.338;2022-11-04T11:05:28;10.80;99.90
40952;DHT22;26682;51.660;19.338;2022-11-04T11:07:15;10.80;99.90
40952;DHT22;26682;51.660;19.338;2022-11-04T11:09:11;10.80;99.90
40952;DHT22;26682;51.660;19.338;2022-11-04T11:11:00;10.80;99.90
40952;DHT22;26682;51.660;19.338;2022-11-04T11:13:00;10.90;99.90
40952;DHT22;26682;51.660;19.338;2022-11-04T11:14:46;10.90;99.90
40952;DHT22;26682;51.660;19.338;2022-11-04T11:16:33;10.90;99.90
40952;DHT22;26682;51.660;19.338;2022-11-04T11:18:19;10.90;99.90
40952;DHT22;26682;51.660;19.338;2022-11-04T11:20:21;10.90;99.90
40952;DHT22;26682;51.660;19.338;2022-11-04T11:22:39;10.90;99.90
40952;DHT22;26682;51.660;19.338;2022-11-04T11:24:27;10.90;99.90
40952;DHT22;26682;51.660;19.338;2022-11-04T11:26:28;10.90;99.90
40952;DHT22;26682;51.660;19.338;2022-11-04T11:28:23;10.90;99.90
40952;DHT22;26682;51.660;19.338;2022-11-04T11:30:25;10.90;99.90
40952;DHT22;26682;51.660;19.338;2022-11-04T11:32:28;10.90;99.90
40952;DHT22;26682;51.660;19.338;2022-11-04T11:34:32;11.00;99.90
40952;DHT22;26682;51.660;19.338;2022-11-04T11:36:32;11.00;99.90
40952;DHT22;26682;51.660;19.338;2022-11-04T11:38:23;10.90;99.90
40952;DHT22;26682;51.660;19.338;2022-11-04T11:40:25;10.90;99.90
40952;DHT22;26682;51.660;19.338;2022-11-04T11:42:14;11.00;99.90
40952;DHT22;26682;51.660;19.338;2022-11-04T11:44:16;11.00;99.90
40952;DHT22;26682;51.660;19.338;2022-11-04T11:46:03;11.00;99.90
40952;DHT22;26682;51.660;19.338;2022-11-04T11:47:49;11.00;99.90
40952;DHT22;26682;51.660;19.338;2022-11-04T11:49:39;11.10;99.90
40952;DHT22;26682;51.660;19.338;2022-11-04T11:51:30;11.00;99.90
40952;DHT22;26682;51.660;19.338;2022-11-04T11:53:18;11.10;99.90
40952;DHT22;26682;51.660;19.338;2022-11-04T11:57:21;11.10;99.90
40952;DHT22;26682;51.660;19.338;2022-11-04T11:59:18;11.10;99.90
40952;DHT22;26682;51.660;19.338;2022-11-04T12:01:37;11.10;99.90
40952;DHT22;26682;51.660;19.338;2022-11-04T12:07:45;11.10;99.90
40952;DHT22;26682;51.660;19.338;2022-11-04T12:10:08;11.10;99.90
40952;DHT22;26682;51.660;19.338;2022-11-04T12:25:07;11.30;99.90
40952;DHT22;26682;51.660;19.338;2022-11-04T12:29:29;11.30;99.90
40952;DHT22;26682;51.660;19.338;2022-11-04T12:33:30;11.30;99.90
40952;DHT22;26682;51.660;19.338;2022-11-04T12:35:46;11.40;99.90
40952;DHT22;26682;51.660;19.338;2022-11-04T12:40:15;11.40;99.90
40952;DHT22;26682;51.660;19.338;2022-11-04T12:42:16;11.50;99.90
40952;DHT22;26682;51.660;19.338;2022-11-04T12:44:38;11.50;99.90
40952;DHT22;26682;51.660;19.338;2022-11-04T12:46:31;11.50;99.90
40952;DHT22;26682;51.660;19.338;2022-11-04T12:50:29;11.50;99.90
40952;DHT22;26682;51.660;19.338;2022-11-04T12:54:44;11.50;99.90
40952;DHT22;26682;51.660;19.338;2022-11-04T12:56:39;11.50;99.90
40952;DHT22;26682;51.660;19.338;2022-11-04T12:58:46;11.50;99.90